createdAt,value
2019-04-09T00:00:04.085Z,0.00
2019-04-09T00:01:04.074Z,0.00
2019-04-09T00:02:04.921Z,0.00
2019-04-09T00:03:04.885Z,0.00
2019-04-09T00:04:04.737Z,0.00
2019-04-09T00:05:04.168Z,0.00
2019-04-09T00:06:04.884Z,0.00
2019-04-09T00:07:04.111Z,0.00
2019-04-09T00:08:06.580Z,0.00
2019-04-09T00:09:04.687Z,0.00
2019-04-09T00:10:03.972Z,0.00
2019-04-09T00:11:03.888Z,0.00
2019-04-09T00:12:04.750Z,0.00
2019-04-09T00:13:03.852Z,0.00
2019-04-09T00:14:03.842Z,0.00
2019-04-09T00:15:03.828Z,0.00
2019-04-09T00:16:04.712Z,0.00
2019-04-09T00:17:03.869Z,0.00
2019-04-09T00:18:03.874Z,0.00
2019-04-09T00:19:03.752Z,0.00
2019-04-09T00:20:03.994Z,0.00
2019-04-09T00:21:03.949Z,0.00
2019-04-09T00:22:04.006Z,0.00
2019-04-09T00:23:03.961Z,0.00
2019-04-09T00:24:03.657Z,0.00
2019-04-09T00:25:03.974Z,0.00
2019-04-09T00:26:03.865Z,0.00
2019-04-09T00:27:03.764Z,0.00
2019-04-09T00:28:03.664Z,0.00
2019-04-09T00:29:03.573Z,0.00
2019-04-09T00:30:04.475Z,0.00
2019-04-09T00:31:04.265Z,0.00
2019-04-09T00:32:03.596Z,0.00
2019-04-09T00:33:03.715Z,0.00
2019-04-09T00:34:03.479Z,0.00
2019-04-09T00:35:03.469Z,0.00
2019-04-09T00:36:03.447Z,0.00
2019-04-09T00:37:03.439Z,0.00
2019-04-09T00:38:03.407Z,0.00
2019-04-09T00:39:03.700Z,0.00
2019-04-09T00:40:03.666Z,0.00
2019-04-09T00:41:03.369Z,0.00
2019-04-09T00:42:03.341Z,0.00
2019-04-09T00:43:03.320Z,0.00
2019-04-09T00:44:03.945Z,0.00
2019-04-09T00:45:03.902Z,0.00
2019-04-09T00:46:03.266Z,0.00
2019-04-09T00:47:03.992Z,0.00
2019-04-09T00:48:03.229Z,0.00
2019-04-09T00:49:03.210Z,0.00
2019-04-09T00:50:03.196Z,0.00
2019-04-09T00:51:04.085Z,0.00
2019-04-09T00:52:04.084Z,0.00
2019-04-09T00:53:03.139Z,0.00
2019-04-09T00:54:03.126Z,0.00
2019-04-09T00:55:04.088Z,0.00
2019-04-09T00:56:04.179Z,0.00
2019-04-09T00:57:07.400Z,0.00
2019-04-09T00:58:03.577Z,0.00
2019-04-09T00:59:03.351Z,0.00
2019-04-09T01:00:03.674Z,0.00
2019-04-09T01:01:03.624Z,0.00
2019-04-09T01:02:03.363Z,0.00
2019-04-09T01:03:02.968Z,0.00
2019-04-09T01:04:03.491Z,0.00
2019-04-09T01:05:02.998Z,0.00
2019-04-09T01:06:02.913Z,0.00
2019-04-09T01:07:03.843Z,0.00
2019-04-09T01:08:02.885Z,0.00
2019-04-09T01:09:02.865Z,0.00
2019-04-09T01:10:02.840Z,0.00
2019-04-09T01:11:03.298Z,0.00
2019-04-09T01:12:03.764Z,0.00
2019-04-09T01:13:02.790Z,0.00
2019-04-09T01:14:02.962Z,0.00
2019-04-09T01:15:02.750Z,0.00
2019-04-09T01:16:02.735Z,0.00
2019-04-09T01:17:02.925Z,0.00
2019-04-09T01:18:02.851Z,0.00
2019-04-09T01:19:11.903Z,0.00
2019-04-09T01:20:02.874Z,0.00
2019-04-09T01:21:02.734Z,0.00
2019-04-09T01:22:02.913Z,0.00
2019-04-09T01:23:02.610Z,0.00
2019-04-09T01:24:03.202Z,0.00
2019-04-09T01:25:02.581Z,0.00
2019-04-09T01:26:02.588Z,0.00
2019-04-09T01:27:10.561Z,0.00
2019-04-09T01:28:02.568Z,0.00
2019-04-09T01:29:02.503Z,0.00
2019-04-09T01:30:03.384Z,0.00
2019-04-09T01:31:03.143Z,0.00
2019-04-09T01:32:02.458Z,0.00
2019-04-09T01:33:02.438Z,0.00
2019-04-09T01:34:03.322Z,0.00
2019-04-09T01:35:03.426Z,0.00
2019-04-09T01:36:02.387Z,0.00
2019-04-09T01:37:02.367Z,0.00
2019-04-09T01:38:02.353Z,0.00
2019-04-09T01:39:03.183Z,0.00
2019-04-09T01:40:03.206Z,0.00
2019-04-09T01:41:02.320Z,0.00
2019-04-09T01:42:02.632Z,0.00
2019-04-09T01:43:02.272Z,0.00
2019-04-09T01:44:03.134Z,0.00
2019-04-09T01:45:02.982Z,0.00
2019-04-09T01:46:02.205Z,0.00
2019-04-09T01:47:02.204Z,0.00
2019-04-09T01:48:03.108Z,0.00
2019-04-09T01:49:03.134Z,0.00
2019-04-09T01:50:02.134Z,0.00
2019-04-09T01:51:02.203Z,0.00
2019-04-09T01:52:02.187Z,0.00
2019-04-09T01:53:02.147Z,0.00
2019-04-09T01:54:02.065Z,0.00
2019-04-09T01:55:02.538Z,0.00
2019-04-09T01:56:02.341Z,0.00
2019-04-09T01:57:02.034Z,0.00
2019-04-09T01:58:02.236Z,0.00
2019-04-09T01:59:02.098Z,0.00
2019-04-09T02:00:01.958Z,0.00
2019-04-09T02:01:02.873Z,0.00
2019-04-09T02:02:02.643Z,0.00
2019-04-09T02:03:02.562Z,0.00
2019-04-09T02:04:02.381Z,0.00
2019-04-09T02:05:02.831Z,0.00
2019-04-09T02:06:02.633Z,0.00
2019-04-09T02:07:01.842Z,0.00
2019-04-09T02:08:01.824Z,0.00
2019-04-09T02:09:02.862Z,0.00
2019-04-09T02:10:02.634Z,0.00
2019-04-09T02:11:01.781Z,0.00
2019-04-09T02:12:01.978Z,0.00
2019-04-09T02:13:01.794Z,0.00
2019-04-09T02:14:01.729Z,0.00
2019-04-09T02:15:02.883Z,0.00
2019-04-09T02:16:01.886Z,0.00
2019-04-09T02:17:01.778Z,0.00
2019-04-09T02:18:01.652Z,0.00
2019-04-09T02:19:01.634Z,0.00
2019-04-09T02:20:02.893Z,0.00
2019-04-09T02:21:01.612Z,0.00
2019-04-09T02:22:01.813Z,0.00
2019-04-09T02:23:01.567Z,0.00
2019-04-09T02:24:01.547Z,0.00
2019-04-09T02:25:01.534Z,0.00
2019-04-09T02:26:01.907Z,0.00
2019-04-09T02:27:01.726Z,0.00
2019-04-09T02:28:02.464Z,0.00
2019-04-09T02:29:02.221Z,0.00
2019-04-09T02:30:01.442Z,0.00
2019-04-09T02:31:02.154Z,0.00
2019-04-09T02:32:01.909Z,0.00
2019-04-09T02:33:01.523Z,0.00
2019-04-09T02:34:02.762Z,0.00
2019-04-09T02:35:02.762Z,0.00
2019-04-09T02:36:01.775Z,0.00
2019-04-09T02:37:02.129Z,0.00
2019-04-09T02:38:01.301Z,0.00
2019-04-09T02:39:01.276Z,0.00
2019-04-09T02:40:01.259Z,0.00
2019-04-09T02:41:01.246Z,0.00
2019-04-09T02:42:02.073Z,0.00
2019-04-09T02:43:01.935Z,0.00
2019-04-09T02:44:01.186Z,0.00
2019-04-09T02:45:01.196Z,0.00
2019-04-09T02:46:01.887Z,0.00
2019-04-09T02:47:01.136Z,0.00
2019-04-09T02:48:01.123Z,0.00
2019-04-09T02:49:01.918Z,0.00
2019-04-09T02:50:01.985Z,0.00
2019-04-09T02:51:01.738Z,0.00
2019-04-09T02:52:01.050Z,0.00
2019-04-09T02:53:01.032Z,0.00
2019-04-09T02:54:01.010Z,0.00
2019-04-09T02:55:00.995Z,0.00
2019-04-09T02:56:00.981Z,0.00
2019-04-09T02:57:01.287Z,0.00
2019-04-09T02:58:00.944Z,0.00
2019-04-09T02:59:01.227Z,0.00
2019-04-09T03:00:01.235Z,0.00
2019-04-09T03:01:00.890Z,0.00
2019-04-09T03:02:01.292Z,0.00
2019-04-09T03:03:01.054Z,0.00
2019-04-09T03:04:00.840Z,0.00
2019-04-09T03:05:00.817Z,0.00
2019-04-09T03:06:01.203Z,0.00
2019-04-09T03:07:01.104Z,0.00
2019-04-09T03:08:00.762Z,0.00
2019-04-09T03:09:00.745Z,0.00
2019-04-09T03:10:01.854Z,0.00
2019-04-09T03:11:00.883Z,0.00
2019-04-09T03:12:00.757Z,0.00
2019-04-09T03:13:01.675Z,0.00
2019-04-09T03:14:01.659Z,0.00
2019-04-09T03:15:00.636Z,0.00
2019-04-09T03:16:00.704Z,0.00
2019-04-09T03:17:01.346Z,0.00
2019-04-09T03:18:00.580Z,0.00
2019-04-09T03:19:00.572Z,0.00
2019-04-09T03:20:01.514Z,0.00
2019-04-09T03:21:01.394Z,0.00
2019-04-09T03:22:00.510Z,0.00
2019-04-09T03:23:00.491Z,0.00
2019-04-09T03:24:00.505Z,0.00
2019-04-09T03:25:00.562Z,0.00
2019-04-09T03:26:01.349Z,0.00
2019-04-09T03:27:01.238Z,0.00
2019-04-09T03:28:06.390Z,0.00
2019-04-09T03:29:00.395Z,0.00
2019-04-09T03:30:00.361Z,0.00
2019-04-09T03:31:01.718Z,0.00
2019-04-09T03:32:00.860Z,0.00
2019-04-09T03:33:00.397Z,0.00
2019-04-09T03:34:01.984Z,0.00
2019-04-09T03:35:00.732Z,0.00
2019-04-09T03:36:00.670Z,0.00
2019-04-09T03:37:08.868Z,0.00
2019-04-09T03:39:05.653Z,0.00
2019-04-09T03:40:05.628Z,0.00
2019-04-09T03:41:05.976Z,0.00
2019-04-09T03:42:05.988Z,0.00
2019-04-09T03:43:05.855Z,0.00
2019-04-09T03:44:05.691Z,0.00
2019-04-09T03:45:06.555Z,0.00
2019-04-09T03:46:05.518Z,0.00
2019-04-09T03:47:05.496Z,0.00
2019-04-09T03:48:05.477Z,0.00
2019-04-09T03:49:06.513Z,0.00
2019-04-09T03:50:05.445Z,0.00
2019-04-09T03:51:05.532Z,0.00
2019-04-09T03:52:07.177Z,0.00
2019-04-09T03:53:05.889Z,0.00
2019-04-09T03:54:06.173Z,0.00
2019-04-09T03:55:05.349Z,0.00
2019-04-09T03:56:05.430Z,0.00
2019-04-09T03:57:05.617Z,0.00
2019-04-09T03:58:14.031Z,0.00
2019-04-09T03:59:05.273Z,0.00
2019-04-09T04:00:05.984Z,0.00
2019-04-09T04:01:05.870Z,0.00
2019-04-09T04:02:05.929Z,0.00
2019-04-09T04:03:05.298Z,0.00
2019-04-09T04:04:06.029Z,0.00
2019-04-09T04:05:05.396Z,0.00
2019-04-09T04:06:05.409Z,0.00
2019-04-09T04:07:05.128Z,0.00
2019-04-09T04:08:05.108Z,0.00
2019-04-09T04:09:05.090Z,0.00
2019-04-09T04:10:07.079Z,0.00
2019-04-09T04:11:05.053Z,0.00
2019-04-09T04:12:05.036Z,0.00
2019-04-09T04:13:05.020Z,0.00
2019-04-09T04:14:05.000Z,0.00
2019-04-09T04:15:05.790Z,0.00
2019-04-09T04:16:05.980Z,0.00
2019-04-09T04:17:05.936Z,0.00
2019-04-09T04:18:05.210Z,0.00
2019-04-09T04:19:04.904Z,0.00
2019-04-09T04:20:04.887Z,0.00
2019-04-09T04:21:04.870Z,0.00
2019-04-09T04:22:04.853Z,0.00
2019-04-09T04:23:04.841Z,0.00
2019-04-09T04:24:05.737Z,0.00
2019-04-09T04:25:05.804Z,0.00
2019-04-09T04:26:04.778Z,0.00
2019-04-09T04:27:05.224Z,0.00
2019-04-09T04:28:05.048Z,0.00
2019-04-09T04:29:04.720Z,0.00
2019-04-09T04:30:04.705Z,0.00
2019-04-09T04:31:05.402Z,0.00
2019-04-09T04:32:04.921Z,0.00
2019-04-09T04:33:04.740Z,0.00
2019-04-09T04:34:04.630Z,0.00
2019-04-09T04:35:04.612Z,0.00
2019-04-09T04:36:05.259Z,0.00
2019-04-09T04:37:04.576Z,0.00
2019-04-09T04:38:04.556Z,0.00
2019-04-09T04:39:04.540Z,0.00
2019-04-09T04:40:04.522Z,0.00
2019-04-09T04:41:05.570Z,0.00
2019-04-09T04:42:05.505Z,0.00
2019-04-09T04:43:04.463Z,0.00
2019-04-09T04:44:04.447Z,0.00
2019-04-09T04:45:04.427Z,0.00
2019-04-09T04:46:04.413Z,0.00
2019-04-09T04:47:05.457Z,0.00
2019-04-09T04:48:04.802Z,0.00
2019-04-09T04:49:04.611Z,0.00
2019-04-09T04:50:04.338Z,0.00
2019-04-09T04:51:04.315Z,0.00
2019-04-09T04:52:04.298Z,0.00
2019-04-09T04:53:04.437Z,0.00
2019-04-09T04:54:04.274Z,0.00
2019-04-09T04:55:04.334Z,0.00
2019-04-09T04:56:04.225Z,0.00
2019-04-09T04:57:04.219Z,0.00
2019-04-09T04:58:04.310Z,0.00
2019-04-09T04:59:04.176Z,0.00
2019-04-09T05:00:04.739Z,0.00
2019-04-09T05:01:04.137Z,0.00
2019-04-09T05:02:04.140Z,0.00
2019-04-09T05:03:04.185Z,0.00
2019-04-09T05:04:04.808Z,0.00
2019-04-09T05:05:04.463Z,0.00
2019-04-09T05:06:04.041Z,0.00
2019-04-09T05:07:04.021Z,0.00
2019-04-09T05:08:04.007Z,0.00
2019-04-09T05:09:03.988Z,0.00
2019-04-09T05:10:03.967Z,0.00
2019-04-09T05:11:04.278Z,5.63
2019-04-09T05:12:03.929Z,5.63
2019-04-09T05:13:04.071Z,5.63
2019-04-09T05:14:03.894Z,5.63
2019-04-09T05:15:03.877Z,5.63
2019-04-09T05:16:04.001Z,5.63
2019-04-09T05:17:04.496Z,5.63
2019-04-09T05:18:03.945Z,5.63
2019-04-09T05:19:04.235Z,5.63
2019-04-09T05:20:03.808Z,5.63
2019-04-09T05:21:04.010Z,5.63
2019-04-09T05:22:04.330Z,5.63
2019-04-09T05:23:03.729Z,5.63
2019-04-09T05:24:03.708Z,5.63
2019-04-09T05:25:03.688Z,5.63
2019-04-09T05:26:04.042Z,5.63
2019-04-09T05:27:04.530Z,5.63
2019-04-09T05:28:04.532Z,5.63
2019-04-09T05:29:06.307Z,5.63
2019-04-09T05:30:04.574Z,5.63
2019-04-09T05:31:03.580Z,11.25
2019-04-09T05:32:03.564Z,11.25
2019-04-09T05:33:04.888Z,11.25
2019-04-09T05:34:03.528Z,11.25
2019-04-09T05:35:04.085Z,11.25
2019-04-09T05:36:03.503Z,11.25
2019-04-09T05:37:04.509Z,11.25
2019-04-09T05:38:03.454Z,11.25
2019-04-09T05:39:03.882Z,11.25
2019-04-09T05:40:04.394Z,11.25
2019-04-09T05:41:03.531Z,11.25
2019-04-09T05:42:03.383Z,11.25
2019-04-09T05:43:03.678Z,11.25
2019-04-09T05:44:03.346Z,11.25
2019-04-09T05:45:03.522Z,11.25
2019-04-09T05:46:03.598Z,11.25
2019-04-09T05:47:03.925Z,11.25
2019-04-09T05:48:03.348Z,11.25
2019-04-09T05:49:03.465Z,11.25
2019-04-09T05:50:03.239Z,11.25
2019-04-09T05:51:03.226Z,11.25
2019-04-09T05:52:04.019Z,11.25
2019-04-09T05:53:03.777Z,11.25
2019-04-09T05:54:03.169Z,11.25
2019-04-09T05:55:04.235Z,11.25
2019-04-09T05:56:03.382Z,11.25
2019-04-09T05:57:03.110Z,11.25
2019-04-09T05:58:03.778Z,16.88
2019-04-09T05:59:08.260Z,16.88
2019-04-09T06:00:03.948Z,16.88
2019-04-09T06:01:03.040Z,16.88
2019-04-09T06:02:03.171Z,16.88
2019-04-09T06:03:03.959Z,16.88
2019-04-09T06:04:03.293Z,16.88
2019-04-09T06:05:02.974Z,16.88
2019-04-09T06:06:03.002Z,16.88
2019-04-09T06:07:02.933Z,16.88
2019-04-09T06:08:02.914Z,16.88
2019-04-09T06:09:03.939Z,16.88
2019-04-09T06:10:03.817Z,16.88
2019-04-09T06:11:03.324Z,22.50
2019-04-09T06:12:02.862Z,22.50
2019-04-09T06:13:03.045Z,22.50
2019-04-09T06:14:02.818Z,22.50
2019-04-09T06:15:02.803Z,22.50
2019-04-09T06:16:03.745Z,22.50
2019-04-09T06:17:03.093Z,22.50
2019-04-09T06:18:02.760Z,22.50
2019-04-09T06:19:03.686Z,22.50
2019-04-09T06:20:02.706Z,22.50
2019-04-09T06:21:03.209Z,22.50
2019-04-09T06:22:03.240Z,22.50
2019-04-09T06:23:02.653Z,28.13
2019-04-09T06:24:02.685Z,28.13
2019-04-09T06:25:04.266Z,28.13
2019-04-09T06:26:02.605Z,28.13
2019-04-09T06:27:02.616Z,28.13
2019-04-09T06:28:03.760Z,28.13
2019-04-09T06:29:14.383Z,28.13
2019-04-09T06:30:02.907Z,28.13
2019-04-09T06:31:02.516Z,28.13
2019-04-09T06:32:02.696Z,28.13
2019-04-09T06:33:02.481Z,28.13
2019-04-09T06:34:02.465Z,28.13
2019-04-09T06:35:03.400Z,33.75
2019-04-09T06:36:02.437Z,33.75
2019-04-09T06:37:02.415Z,33.75
2019-04-09T06:38:02.838Z,33.75
2019-04-09T06:39:02.378Z,33.75
2019-04-09T06:40:03.450Z,33.75
2019-04-09T06:41:03.293Z,33.75
2019-04-09T06:42:02.330Z,33.75
2019-04-09T06:43:03.753Z,33.75
2019-04-09T06:44:02.346Z,33.75
2019-04-09T06:45:02.281Z,39.38
2019-04-09T06:46:03.238Z,39.38
2019-04-09T06:47:02.446Z,39.38
2019-04-09T06:48:02.240Z,39.38
2019-04-09T06:49:02.215Z,45.00
2019-04-09T06:50:03.219Z,45.00
2019-04-09T06:51:02.292Z,45.00
2019-04-09T06:52:02.629Z,50.63
2019-04-09T06:53:02.144Z,50.63
2019-04-09T06:54:02.131Z,50.63
2019-04-09T06:55:08.020Z,56.25
2019-04-09T06:56:03.029Z,50.63
2019-04-09T06:57:03.175Z,50.63
2019-04-09T06:58:04.276Z,50.63
2019-04-09T06:59:02.959Z,56.25
2019-04-09T07:00:03.140Z,56.25
2019-04-09T07:01:02.013Z,56.25
2019-04-09T07:02:01.997Z,56.25
2019-04-09T07:03:02.826Z,56.25
2019-04-09T07:04:02.978Z,61.88
2019-04-09T07:05:02.180Z,67.50
2019-04-09T07:06:01.979Z,67.50
2019-04-09T07:07:01.919Z,67.50
2019-04-09T07:08:01.898Z,67.50
2019-04-09T07:09:01.947Z,67.50
2019-04-09T07:10:01.866Z,67.50
2019-04-09T07:11:10.715Z,67.50
2019-04-09T07:12:02.767Z,67.50
2019-04-09T07:13:01.827Z,67.50
2019-04-09T07:14:02.111Z,78.75
2019-04-09T07:15:02.891Z,84.38
2019-04-09T07:16:01.779Z,90.00
2019-04-09T07:17:02.505Z,90.00
2019-04-09T07:18:02.611Z,84.38
2019-04-09T07:19:02.023Z,67.50
2019-04-09T07:20:01.709Z,61.88
2019-04-09T07:21:01.693Z,61.88
2019-04-09T07:22:02.558Z,61.88
2019-04-09T07:23:01.671Z,61.88
2019-04-09T07:24:02.041Z,61.88
2019-04-09T07:25:01.666Z,61.88
2019-04-09T07:26:04.071Z,67.50
2019-04-09T07:27:01.605Z,73.13
2019-04-09T07:28:02.382Z,73.13
2019-04-09T07:29:02.478Z,73.13
2019-04-09T07:30:06.970Z,78.75
2019-04-09T07:31:04.538Z,73.13
2019-04-09T07:32:03.945Z,73.13
2019-04-09T07:33:01.800Z,73.13
2019-04-09T07:34:01.552Z,67.50
2019-04-09T07:35:02.292Z,67.50
2019-04-09T07:36:04.151Z,67.50
2019-04-09T07:37:01.472Z,67.50
2019-04-09T07:38:01.502Z,67.50
2019-04-09T07:39:01.976Z,61.88
2019-04-09T07:40:02.477Z,61.88
2019-04-09T07:41:06.042Z,61.88
2019-04-09T07:42:02.009Z,61.88
2019-04-09T07:43:03.719Z,61.88
2019-04-09T07:44:03.905Z,56.25
2019-04-09T07:45:05.461Z,56.25
2019-04-09T07:46:02.186Z,56.25
2019-04-09T07:47:01.302Z,56.25
2019-04-09T07:48:01.284Z,56.25
2019-04-09T07:49:02.302Z,50.63
2019-04-09T07:50:06.982Z,50.63
2019-04-09T07:51:01.241Z,50.63
2019-04-09T07:52:01.228Z,50.63
2019-04-09T07:53:02.538Z,50.63
2019-04-09T07:54:04.651Z,50.63
2019-04-09T07:55:01.190Z,50.63
2019-04-09T07:56:01.176Z,50.63
2019-04-09T07:57:02.908Z,56.25
2019-04-09T07:58:01.897Z,56.25
2019-04-09T07:59:01.161Z,56.25
2019-04-09T08:00:09.218Z,56.25
2019-04-09T08:01:02.090Z,56.25
2019-04-09T08:02:02.067Z,56.25
2019-04-09T08:03:01.447Z,56.25
2019-04-09T08:04:04.486Z,56.25
2019-04-09T08:05:01.037Z,56.25
2019-04-09T08:06:01.021Z,56.25
2019-04-09T08:07:03.762Z,50.63
2019-04-09T08:08:03.083Z,50.63
2019-04-09T08:09:00.994Z,50.63
2019-04-09T08:10:01.918Z,50.63
2019-04-09T08:11:03.992Z,50.63
2019-04-09T08:12:00.932Z,50.63
2019-04-09T08:13:01.333Z,50.63
2019-04-09T08:14:01.763Z,50.63
2019-04-09T08:15:02.830Z,50.63
2019-04-09T08:16:02.013Z,56.25
2019-04-09T08:17:00.861Z,56.25
2019-04-09T08:18:05.736Z,56.25
2019-04-09T08:19:01.831Z,56.25
2019-04-09T08:20:01.039Z,56.25
2019-04-09T08:21:01.612Z,50.63
2019-04-09T08:22:01.275Z,50.63
2019-04-09T08:23:00.797Z,50.63
2019-04-09T08:24:01.716Z,50.63
2019-04-09T08:25:01.695Z,50.63
2019-04-09T08:26:03.656Z,50.63
2019-04-09T08:27:01.580Z,50.63
2019-04-09T08:28:00.700Z,45.00
2019-04-09T08:29:00.884Z,45.00
2019-04-09T08:30:16.824Z,45.00
2019-04-09T08:31:01.550Z,45.00
2019-04-09T08:32:09.190Z,45.00
2019-04-09T08:33:00.621Z,45.00
2019-04-09T08:34:00.663Z,45.00
2019-04-09T08:35:03.030Z,45.00
2019-04-09T08:36:01.927Z,45.00
2019-04-09T08:37:00.948Z,45.00
2019-04-09T08:38:01.191Z,45.00
2019-04-09T08:39:03.416Z,45.00
2019-04-09T08:40:01.646Z,39.38
2019-04-09T08:41:00.973Z,39.38
2019-04-09T08:42:00.494Z,39.38
2019-04-09T08:43:03.906Z,39.38
2019-04-09T08:44:05.055Z,39.38
2019-04-09T08:45:00.465Z,39.38
2019-04-09T08:46:00.429Z,39.38
2019-04-09T08:47:01.983Z,39.38
2019-04-09T08:48:01.257Z,39.38
2019-04-09T08:49:00.391Z,45.00
2019-04-09T08:50:01.299Z,45.00
2019-04-09T08:51:02.457Z,45.00
2019-04-09T08:52:00.349Z,45.00
2019-04-09T08:53:00.406Z,45.00
2019-04-09T08:54:00.467Z,45.00
2019-04-09T08:55:01.489Z,45.00
2019-04-09T08:56:06.168Z,45.00
2019-04-09T08:57:00.280Z,45.00
2019-04-09T08:58:01.246Z,45.00
2019-04-09T08:59:00.964Z,45.00
2019-04-09T09:00:00.228Z,45.00
2019-04-09T09:01:27.558Z,45.00
2019-04-09T09:02:12.426Z,45.00
2019-04-09T09:03:00.249Z,45.00
2019-04-09T09:04:06.053Z,50.63
2019-04-09T09:05:09.087Z,50.63
2019-04-09T09:06:04.028Z,50.63
2019-04-09T09:07:00.178Z,50.63
2019-04-09T09:08:03.796Z,50.63
2019-04-09T09:09:01.230Z,50.63
2019-04-09T09:10:01.251Z,50.63
2019-04-09T09:11:00.089Z,50.63
2019-04-09T09:12:05.239Z,50.63
2019-04-09T09:13:00.040Z,56.25
2019-04-09T09:14:00.288Z,56.25
2019-04-09T09:15:00.004Z,56.25
2019-04-09T09:15:59.991Z,61.88
2019-04-09T09:17:04.858Z,61.88
2019-04-09T09:17:59.964Z,61.88
2019-04-09T09:19:00.465Z,61.88
2019-04-09T09:20:03.333Z,61.88
2019-04-09T09:21:13.098Z,61.88
2019-04-09T09:22:03.546Z,61.88
2019-04-09T09:23:00.838Z,61.88
2019-04-09T09:24:00.785Z,61.88
2019-04-09T09:24:59.862Z,61.88
2019-04-09T09:26:03.467Z,61.88
2019-04-09T09:26:59.835Z,61.88
2019-04-09T09:28:02.775Z,67.50
2019-04-09T09:28:59.820Z,67.50
2019-04-09T09:29:59.913Z,67.50
2019-04-09T09:31:11.179Z,67.50
2019-04-09T09:32:01.190Z,67.50
2019-04-09T09:32:59.812Z,67.50
2019-04-09T09:34:00.910Z,67.50
2019-04-09T09:35:02.738Z,67.50
2019-04-09T09:36:03.696Z,67.50
2019-04-09T09:36:59.690Z,67.50
2019-04-09T09:38:00.001Z,67.50
2019-04-09T09:39:01.779Z,67.50
2019-04-09T09:40:00.933Z,73.13
2019-04-09T09:41:02.621Z,73.13
2019-04-09T09:41:59.618Z,73.13
2019-04-09T09:42:59.608Z,78.75
2019-04-09T09:44:00.554Z,78.75
2019-04-09T09:45:03.371Z,78.75
2019-04-09T09:46:02.002Z,78.75
2019-04-09T09:47:00.543Z,84.38
2019-04-09T09:47:59.895Z,84.38
2019-04-09T09:49:00.956Z,84.38
2019-04-09T09:50:06.325Z,84.38
2019-04-09T09:50:59.955Z,90.00
2019-04-09T09:51:59.648Z,90.00
2019-04-09T09:53:01.613Z,95.63
2019-04-09T09:54:02.488Z,95.63
2019-04-09T09:55:02.493Z,95.63
2019-04-09T09:56:00.827Z,90.00
2019-04-09T09:56:59.411Z,90.00
2019-04-09T09:57:59.409Z,90.00
2019-04-09T09:58:59.388Z,84.38
2019-04-09T10:00:03.939Z,84.38
2019-04-09T10:01:08.058Z,78.75
2019-04-09T10:02:03.205Z,78.75
2019-04-09T10:03:00.109Z,73.13
2019-04-09T10:03:59.314Z,73.13
2019-04-09T10:04:59.448Z,73.13
2019-04-09T10:05:59.805Z,73.13
2019-04-09T10:06:59.349Z,73.13
2019-04-09T10:08:03.020Z,73.13
2019-04-09T10:09:00.286Z,78.75
2019-04-09T10:09:59.557Z,78.75
2019-04-09T10:11:00.371Z,78.75
2019-04-09T10:11:59.587Z,78.75
2019-04-09T10:13:01.301Z,84.38
2019-04-09T10:13:59.676Z,84.38
2019-04-09T10:15:02.964Z,90.00
2019-04-09T10:15:59.383Z,90.00
2019-04-09T10:17:00.030Z,90.00
2019-04-09T10:18:01.362Z,90.00
2019-04-09T10:19:07.230Z,90.00
2019-04-09T10:20:00.266Z,90.00
2019-04-09T10:20:59.083Z,84.38
2019-04-09T10:22:01.624Z,84.38
2019-04-09T10:23:00.186Z,84.38
2019-04-09T10:24:07.314Z,84.38
2019-04-09T10:24:59.349Z,84.38
2019-04-09T10:26:01.903Z,90.00
2019-04-09T10:26:59.130Z,90.00
2019-04-09T10:27:59.975Z,95.63
2019-04-09T10:29:01.776Z,95.63
2019-04-09T10:29:59.634Z,95.63
2019-04-09T10:30:58.977Z,95.63
2019-04-09T10:31:58.938Z,95.63
2019-04-09T10:32:58.922Z,95.63
2019-04-09T10:33:59.716Z,95.63
2019-04-09T10:34:59.857Z,90.00
2019-04-09T10:36:02.006Z,90.00
2019-04-09T10:36:59.258Z,90.00
2019-04-09T10:37:59.076Z,95.63
2019-04-09T10:39:01.582Z,95.63
2019-04-09T10:39:59.087Z,95.63
2019-04-09T10:40:59.619Z,95.63
2019-04-09T10:42:02.266Z,101.25
2019-04-09T10:42:58.791Z,101.25
2019-04-09T10:43:58.782Z,101.25
2019-04-09T10:44:59.411Z,101.25
2019-04-09T10:46:00.636Z,101.25
2019-04-09T10:46:58.740Z,101.25
2019-04-09T10:47:58.729Z,112.50
2019-04-09T10:49:02.408Z,95.63
2019-04-09T10:49:59.683Z,90.00
2019-04-09T10:50:58.690Z,90.00
2019-04-09T10:51:59.650Z,84.38
2019-04-09T10:52:58.756Z,84.38
2019-04-09T10:53:59.266Z,84.38
2019-04-09T10:54:59.622Z,84.38
2019-04-09T10:55:59.687Z,90.00
2019-04-09T10:57:05.253Z,95.63
2019-04-09T10:57:58.604Z,101.25
2019-04-09T10:58:58.591Z,112.50
2019-04-09T11:00:03.714Z,118.13
2019-04-09T11:00:58.794Z,118.13
2019-04-09T11:01:58.788Z,118.13
2019-04-09T11:03:01.824Z,118.13
2019-04-09T11:03:58.529Z,118.13
2019-04-09T11:04:58.520Z,123.75
2019-04-09T11:06:00.225Z,123.75
2019-04-09T11:07:00.687Z,129.38
2019-04-09T11:08:02.728Z,129.38
2019-04-09T11:08:59.299Z,129.38
2019-04-09T11:10:00.399Z,129.38
2019-04-09T11:10:58.940Z,135.00
2019-04-09T11:11:58.505Z,129.38
2019-04-09T11:13:00.980Z,129.38
2019-04-09T11:13:58.413Z,135.00
2019-04-09T11:15:00.619Z,140.63
2019-04-09T11:16:00.586Z,151.88
2019-04-09T11:17:03.400Z,151.88
2019-04-09T11:17:59.174Z,151.88
2019-04-09T11:18:58.348Z,151.88
2019-04-09T11:19:59.916Z,146.25
2019-04-09T11:21:02.364Z,146.25
2019-04-09T11:21:58.393Z,151.88
2019-04-09T11:22:58.957Z,157.50
2019-04-09T11:24:00.048Z,163.13
2019-04-09T11:25:02.638Z,163.13
2019-04-09T11:25:58.271Z,163.13
2019-04-09T11:26:59.952Z,151.88
2019-04-09T11:28:07.190Z,146.25
2019-04-09T11:30:02.689Z,151.88
2019-04-09T11:31:02.667Z,168.75
2019-04-09T11:33:08.788Z,191.25
2019-04-09T11:34:08.940Z,196.88
2019-04-09T11:36:12.633Z,191.25
2019-04-09T11:37:12.506Z,185.63
2019-04-09T11:38:13.045Z,185.63
2019-04-09T11:39:12.485Z,196.88
2019-04-09T11:40:12.756Z,202.50
2019-04-09T11:41:12.802Z,275.63
2019-04-09T11:42:12.470Z,225.00
2019-04-09T11:43:15.434Z,270.00
2019-04-09T11:44:13.103Z,258.75
2019-04-09T11:45:13.428Z,270.00
2019-04-09T11:46:12.678Z,230.63
2019-04-09T11:47:12.407Z,225.00
2019-04-09T11:48:12.403Z,202.50
2019-04-09T11:49:12.389Z,185.63
2019-04-09T11:50:12.384Z,180.00
2019-04-09T11:51:13.109Z,163.13
2019-04-09T11:52:12.365Z,157.50
2019-04-09T11:53:12.358Z,157.50
2019-04-09T11:54:13.461Z,151.88
2019-04-09T11:55:13.341Z,146.25
2019-04-09T11:56:12.334Z,146.25
2019-04-09T11:57:12.766Z,151.88
2019-04-09T11:58:13.098Z,151.88
2019-04-09T11:59:17.470Z,146.25
2019-04-09T12:00:13.334Z,146.25
2019-04-09T12:01:12.414Z,151.88
2019-04-09T12:02:14.446Z,157.50
2019-04-09T12:03:12.273Z,180.00
2019-04-09T12:04:12.265Z,253.13
2019-04-09T12:05:12.258Z,286.88
2019-04-09T12:06:13.966Z,247.50
2019-04-09T12:07:12.240Z,230.63
2019-04-09T12:08:12.648Z,219.38
2019-04-09T12:09:13.116Z,292.50
2019-04-09T12:10:12.215Z,236.25
2019-04-09T12:11:12.533Z,230.63
2019-04-09T12:12:12.200Z,208.13
2019-04-09T12:13:12.197Z,208.13
2019-04-09T12:14:13.036Z,196.88
2019-04-09T12:15:12.829Z,163.13
2019-04-09T12:16:13.155Z,151.88
2019-04-09T12:17:12.250Z,151.88
2019-04-09T12:18:12.173Z,135.00
2019-04-09T12:19:12.479Z,135.00
2019-04-09T12:20:14.283Z,129.38
2019-04-09T12:21:13.101Z,123.75
2019-04-09T12:22:12.129Z,118.13
2019-04-09T12:23:12.126Z,123.75
2019-04-09T12:24:13.006Z,112.50
2019-04-09T12:25:12.106Z,112.50
2019-04-09T12:26:12.651Z,112.50
2019-04-09T12:27:15.717Z,112.50
2019-04-09T12:28:12.942Z,112.50
2019-04-09T12:29:18.959Z,123.75
2019-04-09T12:30:12.204Z,118.13
2019-04-09T12:31:12.159Z,129.38
2019-04-09T12:32:20.680Z,123.75
2019-04-09T12:33:12.044Z,129.38
2019-04-09T12:34:12.037Z,129.38
2019-04-09T12:35:12.980Z,129.38
2019-04-09T12:36:12.860Z,135.00
2019-04-09T12:37:12.008Z,135.00
2019-04-09T12:38:12.394Z,140.63
2019-04-09T12:39:11.988Z,163.13
2019-04-09T12:40:12.719Z,140.63
2019-04-09T12:41:13.107Z,151.88
2019-04-09T12:42:12.255Z,129.38
2019-04-09T12:43:12.556Z,112.50
2019-04-09T12:44:12.178Z,106.88
2019-04-09T12:45:12.170Z,101.25
2019-04-09T12:46:11.930Z,101.25
2019-04-09T12:47:11.921Z,101.25
2019-04-09T12:48:12.577Z,106.88
2019-04-09T12:49:12.483Z,106.88
2019-04-09T12:50:11.894Z,101.25
2019-04-09T12:51:13.057Z,101.25
2019-04-09T12:52:11.889Z,106.88
2019-04-09T12:53:12.153Z,112.50
2019-04-09T12:54:11.857Z,123.75
2019-04-09T12:55:12.805Z,135.00
2019-04-09T12:56:13.000Z,140.63
2019-04-09T12:57:11.830Z,208.13
2019-04-09T12:58:12.493Z,168.75
2019-04-09T12:59:12.743Z,247.50
2019-04-09T13:00:11.874Z,247.50
2019-04-09T13:01:12.153Z,258.75
2019-04-09T13:02:24.460Z,275.63
2019-04-09T13:03:11.780Z,196.88